Time;durP1;ratioP1;P1;durP2;ratioP2;P2;SDS_P1;SDS_P2;PMS_P1;PMS_P2;Temp;Humidity;BMP_temperature;BMP_pressure;BME280_temperature;BME280_humidity;BME280_pressure;Samples;Min_cycle;Max_cycle;Signal;HPM_P1;HPM_P2
2023/06/09 15:15:27;;;;;;;;;;;;;;;;;;5112611;27;3224;-65
2023/06/09 15:17:53;;;;;;;;;;;;;;;;;;5077744;27;4835;-65
2023/06/09 15:20:18;;;;;;;;;;;;;;;;;;5076596;28;4915;-64
2023/06/09 15:22:44;;;;;;;;;;;;;;;;;;5072560;28;4698;-64
2023/06/09 15:25:09;;;;;;;;;;;;;;;;;;5079890;28;4458;-64
2023/06/09 15:27:35;;;;;;;;;;;;;;;;;;5073518;28;3707;-66
2023/06/09 15:30:01;;;;;;;;;;;;;;;;;;5073880;28;4371;-65
2023/06/09 15:32:26;;;;;;;;;;;;;;;;;;5082813;28;4647;-66
2023/06/09 15:34:51;;;;;;;;;;;;;;;;;;5081428;28;4479;-66
2023/06/09 15:37:17;;;;;;;;;;;;;;;;;;5081638;28;5196;-65
2023/06/09 15:39:42;;;;;;;;;;;;;;;;;;5081783;28;4451;-64
2023/06/09 15:42:10;;;;;;;;;;;;;;;;;;5083592;28;1088;-64
2023/06/09 15:44:35;;;;;;;;;;;;;;;;;;5076326;28;4466;-65
2023/06/09 15:47:00;;;;;;;;;;;;;;;;;;5081804;28;4617;-67
2023/06/09 15:49:26;;;;;;;;;;;;;;;;;;5083195;28;4605;-64
2023/06/09 15:51:51;;;;;;;;;;;;;;;;;;5082154;28;4403;-64
2023/06/09 15:54:16;;;;;;;;;;;;;;;;;;5079712;28;3221;-65
2023/06/09 15:56:41;;;;;;;;;;;;;;;;;;5081603;28;4578;-64
2023/06/09 15:59:07;;;;;;;;;;;;;;;;;;5082205;28;4675;-64
2023/06/09 16:01:32;;;;;;;;;;;;;;;;;;5080673;28;5014;-63
2023/06/09 16:03:57;;;;;;;;;;;;;;;;;;5082140;28;4517;-64
2023/06/09 16:06:22;;;;;;;;;;;;;;;;;;5079957;28;3295;-64
2023/06/09 16:08:48;;;;;;;;;;;;;;;;;;5080437;28;4787;-64
2023/06/09 16:11:13;;;;;;;;;;;;;;;;;;5072398;28;4599;-64
2023/06/09 16:13:38;;;;;;;;;;;;;;;;;;5081609;28;4416;-65
2023/06/09 16:16:04;;;;;;;;;;;;;;;;;;5079444;28;4755;-67
2023/06/09 16:18:29;;;;;;;;;;;;;;;;;;5073702;28;4664;-67
2023/06/09 16:20:54;;;;;;;;;;;;;;;;;;5078483;28;4511;-67
2023/06/09 16:23:20;;;;;;;;;;;;;;;;;;5081409;28;5223;-65
2023/06/09 16:25:45;;;;;;;;;;;;;;;;;;5069758;28;4902;-66
2023/06/09 16:28:10;;;;;;;;;;;;;;;;;;5060439;28;4612;-65
2023/06/09 16:30:38;;;;;;;;;;;;;;;;;;5065717;28;3205;-67
2023/06/09 16:33:03;;;;;;;;;;;;;;;;;;5069366;28;4980;-66
2023/06/09 16:35:28;;;;;;;;;;;;;;;;;;5066646;28;4917;-66
2023/06/09 16:37:53;;;;;;;;;;;;;;;;;;5068414;28;4454;-68
2023/06/09 16:40:19;;;;;;;;;;;;;;;;;;5054259;28;5065;-67
2023/06/09 16:42:44;;;;;;;;;;;;;;;;;;5060055;28;4659;-67
2023/06/09 16:45:09;;;;;;;;;;;;;;;;;;5065310;28;3439;-67
2023/06/09 16:47:35;;;;;;;;;;;;;;;;;;5062969;28;5222;-66
2023/06/09 16:50:00;;;;;;;;;;;;;;;;;;5067956;28;4891;-65
2023/06/09 16:52:25;;;;;;;;;;;;;;;;;;5067498;28;4679;-66
2023/06/09 16:54:50;;;;;;;;;;;;;;;;;;5063811;28;4650;-65
2023/06/09 16:57:15;;;;;;;;;;;;;;;;;;5068244;28;1220;-64
2023/06/09 16:59:41;;;;;;;;;;;;;;;;;;5060687;28;4382;-66
2023/06/09 17:02:06;;;;;;;;;;;;;;;;;;5060911;28;4713;-54
2023/06/09 17:04:31;;;;;;;;;;;;;;;;;;5070930;28;4504;-59
2023/06/09 17:06:56;;;;;;;;;;;;;;;;;;5066885;28;5056;-56
2023/06/09 17:09:22;;;;;;;;;;;;;;;;;;5067306;28;3312;-68
2023/06/09 17:11:47;;;;;;;;;;;;;;;;;;5065072;28;4825;-68
2023/06/09 17:14:13;;;;;;;;;;;;;;;;;;5060314;28;4668;-68
2023/06/09 17:16:41;;;;;;;;;;;;;;;;;;5056038;28;5034;-67
2023/06/09 17:19:06;;;;;;;;;;;;;;;;;;5061341;28;4667;-67
2023/06/09 17:21:33;;;;;;;;;;;;;;;;;;5066596;28;1143;-67
2023/06/09 17:23:59;;;;;;;;;;;;;;;;;;5063639;28;4384;-68
2023/06/09 17:26:27;;;;;;;;;;;;;;;;;;5064829;28;4659;-67
2023/06/09 17:28:53;;;;;;;;;;;;;;;;;;5063542;28;4574;-67
2023/06/09 17:31:18;;;;;;;;;;;;;;;;;;5066554;28;4901;-68
2023/06/09 17:33:43;;;;;;;;;;;;;;;;;;5067006;28;4498;-67
2023/06/09 17:36:09;;;;;;;;;;;;;;;;;;5067642;28;1126;-67
2023/06/09 17:38:34;;;;;;;;;;;;;;;;;;5065015;28;4985;-67
2023/06/09 17:40:59;;;;;;;;;;;;;;;;;;5066291;28;4480;-67
2023/06/09 17:43:25;;;;;;;;;;;;;;;;;;5065122;28;4462;-67
2023/06/09 17:45:51;;;;;;;;;;;;;;;;;;5065601;28;5420;-69
2023/06/09 17:48:17;;;;;;;;;;;;;;;;;;5067649;28;1281;-68
2023/06/09 17:50:42;;;;;;;;;;;;;;;;;;5067195;28;5394;-67
2023/06/09 17:53:07;;;;;;;;;;;;;;;;;;5065501;28;4823;-67
2023/06/09 17:55:32;;;;;;;;;;;;;;;;;;5066587;28;4637;-68
2023/06/09 17:57:58;;;;;;;;;;;;;;;;;;5066200;28;4978;-68
2023/06/09 18:00:23;;;;;;;;;;;;;;;;;;5065056;28;3135;-68
2023/06/09 18:02:48;;;;;;;;;;;;;;;;;;5066382;28;4521;-68
2023/06/09 18:05:13;;;;;;;;;;;;;;;;;;5066613;28;4405;-67
2023/06/09 18:07:40;;;;;;;;;;;;;;;;;;5066345;28;4995;-67
2023/06/09 18:10:06;;;;;;;;;;;;;;;;;;5057614;28;4473;-67
2023/06/09 18:12:31;;;;;;;;;;;;;;;;;;5061187;28;3549;-68
2023/06/09 18:14:57;;;;;;;;;;;;;;;;;;5060971;28;4446;-66
2023/06/09 18:17:22;;;;;;;;;;;;;;;;;;5058828;28;4489;-65
2023/06/09 18:19:47;;;;;;;;;;;;;;;;;;5056176;28;4999;-66
2023/06/09 18:22:13;;;;;;;;;;;;;;;;;;5058524;28;4990;-67
2023/06/09 18:24:38;;;;;;;;;;;;;;;;;;5057715;28;4676;-67
2023/06/09 18:27:03;;;;;;;;;;;;;;;;;;5063449;28;3537;-67
2023/06/09 18:29:29;;;;;;;;;;;;;;;;;;5057442;28;4564;-67
2023/06/09 18:31:54;;;;;;;;;;;;;;;;;;5063384;28;4457;-68
2023/06/09 18:34:19;;;;;;;;;;;;;;;;;;5064336;28;4637;-67
2023/06/09 18:36:45;;;;;;;;;;;;;;;;;;5066827;28;4675;-67
2023/06/09 18:39:10;;;;;;;;;;;;;;;;;;5061915;28;3247;-68
2023/06/09 18:41:35;;;;;;;;;;;;;;;;;;5060168;28;5027;-67
2023/06/09 18:44:11;;;;;;;;;;;;;;;;;;5063600;28;4621;-67
2023/06/09 18:46:36;;;;;;;;;;;;;;;;;;5064766;28;4635;-67
2023/06/09 18:49:01;;;;;;;;;;;;;;;;;;5064824;28;5130;-68
2023/06/09 18:51:27;;;;;;;;;;;;;;;;;;5067190;28;1263;-68
2023/06/09 18:53:53;;;;;;;;;;;;;;;;;;5057143;28;4631;-67
2023/06/09 18:56:18;;;;;;;;;;;;;;;;;;5053863;28;4636;-67
2023/06/09 18:58:43;;;;;;;;;;;;;;;;;;5065596;28;4480;-68
2023/06/09 19:01:09;;;;;;;;;;;;;;;;;;5065911;28;4642;-67
2023/06/09 19:03:34;;;;;;;;;;;;;;;;;;5061288;28;3569;-68
2023/06/09 19:05:59;;;;;;;;;;;;;;;;;;5065504;28;4408;-67
2023/06/09 19:08:25;;;;;;;;;;;;;;;;;;5062201;28;4470;-67
2023/06/09 19:10:50;;;;;;;;;;;;;;;;;;5060178;28;5345;-67
2023/06/09 19:13:16;;;;;;;;;;;;;;;;;;5064432;28;4678;-58
2023/06/09 19:15:41;;;;;;;;;;;;;;;;;;5064655;28;4603;-64
2023/06/09 19:18:06;;;;;;;;;;;;;;;;;;5060701;28;4673;-59
2023/06/09 19:20:31;;;;;;;;;;;;;;;;;;5049100;28;4519;-53
2023/06/09 19:22:57;;;;;;;;;;;;;;;;;;5063997;28;4971;-69
2023/06/09 19:25:22;;;;;;;;;;;;;;;;;;5059053;28;4608;-60
2023/06/09 19:27:49;;;;;;;;;;;;;;;;;;5058999;28;4793;-60
2023/06/09 19:30:16;;;;;;;;;;;;;;;;;;5059644;28;3705;-65
2023/06/09 19:32:41;;;;;;;;;;;;;;;;;;5052350;28;4810;-61
2023/06/09 19:35:07;;;;;;;;;;;;;;;;;;5055047;28;4663;-60
2023/06/09 19:37:32;;;;;;;;;;;;;;;;;;5062184;28;4466;-60
2023/06/09 19:39:57;;;;;;;;;;;;;;;;;;5059102;28;5140;-62
2023/06/09 19:42:23;;;;;;;;;;;;;;;;;;5060703;28;1266;-62
2023/06/09 19:44:50;;;;;;;;;;;;;;;;;;5062219;28;5132;-61
2023/06/09 19:47:15;;;;;;;;;;;;;;;;;;5060593;28;4707;-59
2023/06/09 19:49:40;;;;;;;;;;;;;;;;;;5056335;28;4529;-59
2023/06/09 19:52:07;;;;;;;;;;;;;;;;;;5057336;28;4496;-62
2023/06/09 19:54:32;;;;;;;;;;;;;;;;;;5063025;28;3428;-62
2023/06/09 19:56:57;;;;;;;;;;;;;;;;;;5058441;28;5117;-61
2023/06/09 19:59:22;;;;;;;;;;;;;;;;;;5062083;28;4430;-61
2023/06/09 20:01:48;;;;;;;;;;;;;;;;;;5069249;28;4479;-63
2023/06/09 20:04:13;;;;;;;;;;;;;;;;;;5067350;28;4973;-55
2023/06/09 20:06:39;;;;;;;;;;;;;;;;;;5064147;28;4514;-60
2023/06/09 20:09:04;;;;;;;;;;;;;;;;;;5057350;28;3607;-60
2023/06/09 20:11:30;;;;;;;;;;;;;;;;;;5063710;28;4512;-60
2023/06/09 20:13:55;;;;;;;;;;;;;;;;;;5062411;28;5111;-60
2023/06/09 20:16:22;;;;;;;;;;;;;;;;;;5065583;28;4519;-60
2023/06/09 20:18:47;;;;;;;;;;;;;;;;;;5065148;28;4721;-60
2023/06/09 20:21:12;;;;;;;;;;;;;;;;;;5067144;28;1422;-59
2023/06/09 20:23:40;;;;;;;;;;;;;;;;;;5063786;28;4971;-60
2023/06/09 20:26:09;;;;;;;;;;;;;;;;;;5065772;28;4910;-60
2023/06/09 20:28:34;;;;;;;;;;;;;;;;;;5067067;28;5048;-60
2023/06/09 20:30:59;;;;;;;;;;;;;;;;;;5067630;28;4610;-60
2023/06/09 20:33:25;;;;;;;;;;;;;;;;;;5065380;28;3319;-60
2023/06/09 20:35:50;;;;;;;;;;;;;;;;;;5068243;28;4432;-60
2023/06/09 20:38:15;;;;;;;;;;;;;;;;;;5064960;28;4662;-60
2023/06/09 20:40:41;;;;;;;;;;;;;;;;;;5062768;28;4724;-60
2023/06/09 20:43:07;;;;;;;;;;;;;;;;;;5066397;28;4668;-60
2023/06/09 20:45:35;;;;;;;;;;;;;;;;;;5064816;28;3314;-60
2023/06/09 20:48:00;;;;;;;;;;;;;;;;;;5065687;28;4439;-59
2023/06/09 20:50:30;;;;;;;;;;;;;;;;;;5066187;28;4505;-60
2023/06/09 20:52:56;;;;;;;;;;;;;;;;;;5062701;28;4704;-60
2023/06/09 20:55:21;;;;;;;;;;;;;;;;;;5059422;28;5117;-62
2023/06/09 20:57:47;;;;;;;;;;;;;;;;;;5060165;28;4539;-63
2023/06/09 21:00:12;;;;;;;;;;;;;;;;;;5068018;28;3345;-61
2023/06/09 21:02:38;;;;;;;;;;;;;;;;;;5068602;28;5081;-64
2023/06/09 21:05:04;;;;;;;;;;;;;;;;;;5063518;28;4680;-63
2023/06/09 21:07:30;;;;;;;;;;;;;;;;;;5068726;28;4548;-59
2023/06/09 21:09:55;;;;;;;;;;;;;;;;;;5064977;28;4655;-61
2023/06/09 21:12:20;;;;;;;;;;;;;;;;;;5066325;28;1360;-63
2023/06/09 21:14:46;;;;;;;;;;;;;;;;;;5067446;28;4865;-61
2023/06/09 21:17:11;;;;;;;;;;;;;;;;;;5065792;28;4600;-62
2023/06/09 21:19:36;;;;;;;;;;;;;;;;;;5060814;28;4684;-61
2023/06/09 21:22:02;;;;;;;;;;;;;;;;;;5048568;28;4592;-63
2023/06/09 21:24:27;;;;;;;;;;;;;;;;;;5068470;28;1455;-62
2023/06/09 21:26:53;;;;;;;;;;;;;;;;;;5061881;28;4444;-63
2023/06/09 21:29:19;;;;;;;;;;;;;;;;;;5059578;28;4954;-61
2023/06/09 21:31:44;;;;;;;;;;;;;;;;;;5060677;28;4922;-61
2023/06/09 21:34:10;;;;;;;;;;;;;;;;;;5066795;28;4557;-62
2023/06/09 21:36:35;;;;;;;;;;;;;;;;;;5065232;28;3395;-61
2023/06/09 21:39:01;;;;;;;;;;;;;;;;;;5058425;28;4528;-61
2023/06/09 21:41:26;;;;;;;;;;;;;;;;;;5061716;28;4473;-62
2023/06/09 21:43:52;;;;;;;;;;;;;;;;;;5065926;28;4714;-65
2023/06/09 21:46:18;;;;;;;;;;;;;;;;;;5053478;28;4445;-63
2023/06/09 21:48:43;;;;;;;;;;;;;;;;;;5070003;28;4510;-61
2023/06/09 21:51:09;;;;;;;;;;;;;;;;;;5070079;28;3390;-63
2023/06/09 21:53:35;;;;;;;;;;;;;;;;;;5061859;28;5693;-62
2023/06/09 21:56:00;;;;;;;;;;;;;;;;;;5049533;28;4974;-62
2023/06/09 21:58:25;;;;;;;;;;;;;;;;;;5061720;28;5302;-62
2023/06/09 22:00:51;;;;;;;;;;;;;;;;;;5067470;28;4687;-62
2023/06/09 22:03:16;;;;;;;;;;;;;;;;;;5064646;28;1166;-61
2023/06/09 22:05:41;;;;;;;;;;;;;;;;;;5066246;28;4444;-62
2023/06/09 22:08:07;;;;;;;;;;;;;;;;;;5064373;28;6420;-62
2023/06/09 22:10:32;;;;;;;;;;;;;;;;;;5061062;28;5390;-62
2023/06/09 22:12:57;;;;;;;;;;;;;;;;;;5067204;28;4959;-62
2023/06/09 22:15:22;;;;;;;;;;;;;;;;;;5067865;28;1890;-61
2023/06/09 22:17:48;;;;;;;;;;;;;;;;;;5065333;28;4653;-62
2023/06/09 22:20:13;;;;;;;;;;;;;;;;;;5067823;28;4427;-62
2023/06/09 22:22:38;;;;;;;;;;;;;;;;;;5063075;28;5494;-62
2023/06/09 22:25:04;;;;;;;;;;;;;;;;;;5065832;28;4731;-62
2023/06/09 22:27:30;;;;;;;;;;;;;;;;;;5068524;28;1260;-62
2023/06/09 22:29:55;;;;;;;;;;;;;;;;;;5067222;28;5036;-62
2023/06/09 22:32:20;;;;;;;;;;;;;;;;;;5066477;28;4476;-62
2023/06/09 22:34:46;;;;;;;;;;;;;;;;;;5067197;28;4476;-62
2023/06/09 22:37:12;;;;;;;;;;;;;;;;;;5065740;28;4497;-62
2023/06/09 22:39:38;;;;;;;;;;;;;;;;;;5061780;28;4641;-62
2023/06/09 22:42:05;;;;;;;;;;;;;;;;;;5098730;28;1104;-62
2023/06/09 22:44:30;;;;;;;;;;;;;;;;;;5065780;28;4637;-62
2023/06/09 22:46:56;;;;;;;;;;;;;;;;;;5066121;28;4528;-62
2023/06/09 22:49:22;;;;;;;;;;;;;;;;;;5067051;28;4616;-62
2023/06/09 22:51:48;;;;;;;;;;;;;;;;;;5065688;28;4447;-62
2023/06/09 22:54:14;;;;;;;;;;;;;;;;;;5063125;28;3355;-61
2023/06/09 22:56:39;;;;;;;;;;;;;;;;;;5066321;28;4599;-62
2023/06/09 22:59:05;;;;;;;;;;;;;;;;;;5064397;28;4495;-61
2023/06/09 23:01:30;;;;;;;;;;;;;;;;;;5064241;28;5018;-61
2023/06/09 23:03:55;;;;;;;;;;;;;;;;;;5066855;28;4600;-60
2023/06/09 23:06:27;;;;;;;;;;;;;;;;;;5065961;28;3105;-60
2023/06/09 23:08:53;;;;;;;;;;;;;;;;;;5066913;28;5004;-60
2023/06/09 23:11:18;;;;;;;;;;;;;;;;;;5061624;28;4502;-60
2023/06/09 23:13:43;;;;;;;;;;;;;;;;;;5066274;28;5034;-59
2023/06/09 23:16:09;;;;;;;;;;;;;;;;;;5066584;28;4995;-60
2023/06/09 23:18:35;;;;;;;;;;;;;;;;;;5067035;28;4664;-59
2023/06/09 23:21:00;;;;;;;;;;;;;;;;;;5063442;28;4426;-60
2023/06/09 23:23:25;;;;;;;;;;;;;;;;;;5066642;28;4429;-61
2023/06/09 23:25:51;;;;;;;;;;;;;;;;;;5066240;28;4459;-60
2023/06/09 23:28:16;;;;;;;;;;;;;;;;;;5066279;28;4475;-60
2023/06/09 23:30:41;;;;;;;;;;;;;;;;;;5063210;28;4466;-60
2023/06/09 23:33:06;;;;;;;;;;;;;;;;;;5066672;28;1074;-61
2023/06/09 23:35:33;;;;;;;;;;;;;;;;;;5065469;28;5068;-61
2023/06/09 23:37:59;;;;;;;;;;;;;;;;;;5068877;28;4454;-61
2023/06/09 23:40:25;;;;;;;;;;;;;;;;;;5068932;28;5018;-61
2023/06/09 23:42:50;;;;;;;;;;;;;;;;;;5070416;28;4449;-61
2023/06/09 23:45:15;;;;;;;;;;;;;;;;;;5071300;28;1092;-61
2023/06/09 23:47:41;;;;;;;;;;;;;;;;;;5070087;28;4657;-61
2023/06/09 23:50:06;;;;;;;;;;;;;;;;;;5064494;28;4670;-61
2023/06/09 23:52:32;;;;;;;;;;;;;;;;;;5069712;28;4615;-61
2023/06/09 23:54:59;;;;;;;;;;;;;;;;;;5064133;28;4627;-61
2023/06/09 23:57:24;;;;;;;;;;;;;;;;;;5070385;28;1131;-61
2023/06/09 23:59:49;;;;;;;;;;;;;;;;;;5069546;28;4462;-60
